sensor_id;sensor_type;location;lat;lon;timestamp;P1;durP1;ratioP1;P2;durP2;ratioP2
38972;SDS011;25333;50.762;4.470;2024-03-29T00:00:43;1.35;;;0.30;;
38972;SDS011;25333;50.762;4.470;2024-03-29T00:03:12;2.00;;;0.38;;
38972;SDS011;25333;50.762;4.470;2024-03-29T00:05:37;2.60;;;0.47;;
38972;SDS011;25333;50.762;4.470;2024-03-29T00:08:03;3.03;;;0.50;;
38972;SDS011;25333;50.762;4.470;2024-03-29T00:10:29;1.00;;;0.30;;
38972;SDS011;25333;50.762;4.470;2024-03-29T00:12:55;4.82;;;0.35;;
38972;SDS011;25333;50.762;4.470;2024-03-29T00:15:21;3.40;;;0.17;;
38972;SDS011;25333;50.762;4.470;2024-03-29T00:17:46;0.90;;;0.20;;
38972;SDS011;25333;50.762;4.470;2024-03-29T00:20:12;4.43;;;0.37;;
38972;SDS011;25333;50.762;4.470;2024-03-29T00:22:38;1.40;;;0.20;;
38972;SDS011;25333;50.762;4.470;2024-03-29T00:25:04;2.25;;;0.60;;
38972;SDS011;25333;50.762;4.470;2024-03-29T00:27:30;0.73;;;0.20;;
38972;SDS011;25333;50.762;4.470;2024-03-29T00:29:55;1.00;;;0.20;;
38972;SDS011;25333;50.762;4.470;2024-03-29T00:32:21;2.22;;;0.20;;
38972;SDS011;25333;50.762;4.470;2024-03-29T00:34:49;0.77;;;0.13;;
38972;SDS011;25333;50.762;4.470;2024-03-29T00:37:15;2.00;;;0.15;;
38972;SDS011;25333;50.762;4.470;2024-03-29T00:39:41;2.78;;;0.25;;
38972;SDS011;25333;50.762;4.470;2024-03-29T00:42:07;1.30;;;0.20;;
38972;SDS011;25333;50.762;4.470;2024-03-29T00:44:40;1.88;;;0.20;;
38972;SDS011;25333;50.762;4.470;2024-03-29T00:47:06;2.10;;;0.30;;
38972;SDS011;25333;50.762;4.470;2024-03-29T00:49:32;1.00;;;0.25;;
38972;SDS011;25333;50.762;4.470;2024-03-29T00:51:58;3.30;;;0.30;;
38972;SDS011;25333;50.762;4.470;2024-03-29T00:54:24;2.47;;;0.30;;
38972;SDS011;25333;50.762;4.470;2024-03-29T00:56:50;2.10;;;0.40;;
38972;SDS011;25333;50.762;4.470;2024-03-29T00:59:16;2.30;;;0.17;;
38972;SDS011;25333;50.762;4.470;2024-03-29T01:01:42;2.17;;;0.50;;
38972;SDS011;25333;50.762;4.470;2024-03-29T01:04:08;2.63;;;0.70;;
38972;SDS011;25333;50.762;4.470;2024-03-29T01:06:34;1.35;;;0.28;;
38972;SDS011;25333;50.762;4.470;2024-03-29T01:09:00;1.73;;;0.40;;
38972;SDS011;25333;50.762;4.470;2024-03-29T01:11:26;1.27;;;0.20;;
38972;SDS011;25333;50.762;4.470;2024-03-29T01:13:52;1.20;;;0.20;;
38972;SDS011;25333;50.762;4.470;2024-03-29T01:16:18;2.25;;;0.20;;
38972;SDS011;25333;50.762;4.470;2024-03-29T01:18:44;1.35;;;0.20;;
38972;SDS011;25333;50.762;4.470;2024-03-29T01:21:11;1.90;;;0.30;;
38972;SDS011;25333;50.762;4.470;2024-03-29T01:23:40;1.75;;;0.60;;
38972;SDS011;25333;50.762;4.470;2024-03-29T01:26:06;0.65;;;0.08;;
38972;SDS011;25333;50.762;4.470;2024-03-29T01:28:32;1.67;;;0.15;;
38972;SDS011;25333;50.762;4.470;2024-03-29T01:30:58;2.50;;;0.40;;
38972;SDS011;25333;50.762;4.470;2024-03-29T01:33:24;0.83;;;0.20;;
38972;SDS011;25333;50.762;4.470;2024-03-29T01:35:50;0.77;;;0.00;;
38972;SDS011;25333;50.762;4.470;2024-03-29T01:38:16;1.03;;;0.00;;
38972;SDS011;25333;50.762;4.470;2024-03-29T01:40:42;0.60;;;0.20;;
38972;SDS011;25333;50.762;4.470;2024-03-29T01:43:08;1.88;;;0.13;;
38972;SDS011;25333;50.762;4.470;2024-03-29T01:45:39;0.88;;;0.05;;
38972;SDS011;25333;50.762;4.470;2024-03-29T01:48:06;1.80;;;0.13;;
38972;SDS011;25333;50.762;4.470;2024-03-29T01:50:34;1.40;;;0.20;;
38972;SDS011;25333;50.762;4.470;2024-03-29T01:53:00;2.15;;;0.20;;
38972;SDS011;25333;50.762;4.470;2024-03-29T01:55:27;1.17;;;0.45;;
38972;SDS011;25333;50.762;4.470;2024-03-29T01:57:54;1.00;;;0.10;;
38972;SDS011;25333;50.762;4.470;2024-03-29T02:00:21;3.08;;;0.20;;
38972;SDS011;25333;50.762;4.470;2024-03-29T02:02:47;0.70;;;0.20;;
38972;SDS011;25333;50.762;4.470;2024-03-29T02:05:13;1.10;;;0.10;;
38972;SDS011;25333;50.762;4.470;2024-03-29T02:07:39;0.90;;;0.10;;
38972;SDS011;25333;50.762;4.470;2024-03-29T02:10:05;0.57;;;0.20;;
38972;SDS011;25333;50.762;4.470;2024-03-29T02:12:35;0.88;;;0.10;;
38972;SDS011;25333;50.762;4.470;2024-03-29T02:15:00;2.17;;;0.30;;
38972;SDS011;25333;50.762;4.470;2024-03-29T02:17:27;1.55;;;0.10;;
38972;SDS011;25333;50.762;4.470;2024-03-29T02:19:53;0.70;;;0.10;;
38972;SDS011;25333;50.762;4.470;2024-03-29T02:22:19;0.30;;;0.00;;
38972;SDS011;25333;50.762;4.470;2024-03-29T02:24:47;0.10;;;0.10;;
38972;SDS011;25333;50.762;4.470;2024-03-29T02:27:13;2.20;;;0.20;;
38972;SDS011;25333;50.762;4.470;2024-03-29T02:29:39;1.30;;;0.20;;
38972;SDS011;25333;50.762;4.470;2024-03-29T02:32:04;0.70;;;0.20;;
38972;SDS011;25333;50.762;4.470;2024-03-29T02:34:30;1.23;;;0.10;;
38972;SDS011;25333;50.762;4.470;2024-03-29T02:36:56;3.37;;;0.20;;
38972;SDS011;25333;50.762;4.470;2024-03-29T02:39:22;1.75;;;0.25;;
38972;SDS011;25333;50.762;4.470;2024-03-29T02:41:48;1.75;;;0.50;;
38972;SDS011;25333;50.762;4.470;2024-03-29T02:44:13;0.60;;;0.45;;
38972;SDS011;25333;50.762;4.470;2024-03-29T02:46:41;1.83;;;0.20;;
38972;SDS011;25333;50.762;4.470;2024-03-29T02:49:07;1.90;;;0.38;;
38972;SDS011;25333;50.762;4.470;2024-03-29T02:51:33;2.53;;;0.33;;
38972;SDS011;25333;50.762;4.470;2024-03-29T02:53:58;0.57;;;0.20;;
38972;SDS011;25333;50.762;4.470;2024-03-29T02:56:24;2.03;;;0.33;;
38972;SDS011;25333;50.762;4.470;2024-03-29T02:58:50;1.85;;;0.20;;
38972;SDS011;25333;50.762;4.470;2024-03-29T03:01:16;2.00;;;0.20;;
38972;SDS011;25333;50.762;4.470;2024-03-29T03:03:42;2.53;;;0.10;;
38972;SDS011;25333;50.762;4.470;2024-03-29T03:06:07;1.25;;;0.20;;
38972;SDS011;25333;50.762;4.470;2024-03-29T03:08:33;2.47;;;0.30;;
38972;SDS011;25333;50.762;4.470;2024-03-29T03:11:17;1.08;;;0.10;;
38972;SDS011;25333;50.762;4.470;2024-03-29T03:13:43;1.73;;;0.50;;
38972;SDS011;25333;50.762;4.470;2024-03-29T03:16:09;1.10;;;0.10;;
38972;SDS011;25333;50.762;4.470;2024-03-29T03:18:35;2.17;;;0.30;;
38972;SDS011;25333;50.762;4.470;2024-03-29T03:21:00;2.00;;;0.50;;
38972;SDS011;25333;50.762;4.470;2024-03-29T03:23:26;1.50;;;0.20;;
38972;SDS011;25333;50.762;4.470;2024-03-29T03:25:56;1.88;;;0.32;;
38972;SDS011;25333;50.762;4.470;2024-03-29T03:28:22;1.92;;;0.40;;
38972;SDS011;25333;50.762;4.470;2024-03-29T03:30:49;2.00;;;0.35;;
38972;SDS011;25333;50.762;4.470;2024-03-29T03:33:15;1.30;;;0.30;;
38972;SDS011;25333;50.762;4.470;2024-03-29T03:35:41;4.18;;;0.38;;
38972;SDS011;25333;50.762;4.470;2024-03-29T03:38:07;0.85;;;0.10;;
38972;SDS011;25333;50.762;4.470;2024-03-29T03:40:33;2.05;;;0.20;;
38972;SDS011;25333;50.762;4.470;2024-03-29T03:43:03;3.92;;;0.90;;
38972;SDS011;25333;50.762;4.470;2024-03-29T03:45:39;2.40;;;0.50;;
38972;SDS011;25333;50.762;4.470;2024-03-29T03:48:06;1.70;;;0.35;;
38972;SDS011;25333;50.762;4.470;2024-03-29T03:50:33;1.50;;;0.13;;
38972;SDS011;25333;50.762;4.470;2024-03-29T03:52:59;5.15;;;0.40;;
38972;SDS011;25333;50.762;4.470;2024-03-29T03:55:25;1.60;;;0.30;;
38972;SDS011;25333;50.762;4.470;2024-03-29T03:57:52;2.60;;;0.60;;
38972;SDS011;25333;50.762;4.470;2024-03-29T04:00:18;1.42;;;0.40;;
38972;SDS011;25333;50.762;4.470;2024-03-29T04:02:48;2.40;;;0.40;;
38972;SDS011;25333;50.762;4.470;2024-03-29T04:05:15;1.95;;;0.20;;
38972;SDS011;25333;50.762;4.470;2024-03-29T04:07:44;1.00;;;0.10;;
38972;SDS011;25333;50.762;4.470;2024-03-29T04:10:10;1.45;;;0.30;;
38972;SDS011;25333;50.762;4.470;2024-03-29T04:12:36;1.27;;;0.40;;
38972;SDS011;25333;50.762;4.470;2024-03-29T04:15:02;3.72;;;0.50;;
38972;SDS011;25333;50.762;4.470;2024-03-29T04:17:29;1.10;;;0.40;;
38972;SDS011;25333;50.762;4.470;2024-03-29T04:19:56;3.50;;;0.47;;
38972;SDS011;25333;50.762;4.470;2024-03-29T04:22:28;1.88;;;0.30;;
38972;SDS011;25333;50.762;4.470;2024-03-29T04:24:54;2.05;;;0.30;;
38972;SDS011;25333;50.762;4.470;2024-03-29T04:27:20;1.77;;;0.52;;
38972;SDS011;25333;50.762;4.470;2024-03-29T04:29:46;3.13;;;0.60;;
38972;SDS011;25333;50.762;4.470;2024-03-29T04:32:11;1.75;;;0.38;;
38972;SDS011;25333;50.762;4.470;2024-03-29T04:34:38;1.20;;;0.63;;
38972;SDS011;25333;50.762;4.470;2024-03-29T04:37:03;2.28;;;0.57;;
38972;SDS011;25333;50.762;4.470;2024-03-29T04:39:29;2.93;;;0.30;;
38972;SDS011;25333;50.762;4.470;2024-03-29T04:41:55;2.05;;;0.30;;
38972;SDS011;25333;50.762;4.470;2024-03-29T04:44:24;1.20;;;0.10;;
38972;SDS011;25333;50.762;4.470;2024-03-29T04:46:50;3.00;;;0.40;;
38972;SDS011;25333;50.762;4.470;2024-03-29T04:49:21;2.22;;;0.22;;
38972;SDS011;25333;50.762;4.470;2024-03-29T04:51:58;1.65;;;0.52;;
38972;SDS011;25333;50.762;4.470;2024-03-29T04:54:24;1.10;;;0.22;;
38972;SDS011;25333;50.762;4.470;2024-03-29T04:56:50;2.08;;;0.32;;
38972;SDS011;25333;50.762;4.470;2024-03-29T04:59:17;1.73;;;0.43;;
38972;SDS011;25333;50.762;4.470;2024-03-29T05:01:49;3.15;;;0.50;;
38972;SDS011;25333;50.762;4.470;2024-03-29T05:04:18;1.30;;;0.20;;
38972;SDS011;25333;50.762;4.470;2024-03-29T05:06:54;1.02;;;0.38;;
38972;SDS011;25333;50.762;4.470;2024-03-29T05:09:20;1.20;;;0.50;;
38972;SDS011;25333;50.762;4.470;2024-03-29T05:11:47;1.92;;;0.20;;
38972;SDS011;25333;50.762;4.470;2024-03-29T05:14:14;1.67;;;0.38;;
38972;SDS011;25333;50.762;4.470;2024-03-29T05:16:43;1.00;;;0.20;;
38972;SDS011;25333;50.762;4.470;2024-03-29T05:19:12;1.58;;;0.35;;
38972;SDS011;25333;50.762;4.470;2024-03-29T05:21:38;2.75;;;0.30;;
38972;SDS011;25333;50.762;4.470;2024-03-29T05:24:04;2.10;;;0.33;;
38972;SDS011;25333;50.762;4.470;2024-03-29T05:26:30;1.73;;;0.70;;
38972;SDS011;25333;50.762;4.470;2024-03-29T05:28:56;2.35;;;0.30;;
38972;SDS011;25333;50.762;4.470;2024-03-29T05:31:23;1.05;;;0.30;;
38972;SDS011;25333;50.762;4.470;2024-03-29T05:33:50;2.40;;;0.70;;
38972;SDS011;25333;50.762;4.470;2024-03-29T05:36:16;1.88;;;0.50;;
38972;SDS011;25333;50.762;4.470;2024-03-29T05:38:41;2.08;;;0.32;;
38972;SDS011;25333;50.762;4.470;2024-03-29T05:41:07;3.50;;;0.65;;
38972;SDS011;25333;50.762;4.470;2024-03-29T05:43:33;1.23;;;0.33;;
38972;SDS011;25333;50.762;4.470;2024-03-29T05:45:59;2.40;;;0.30;;
38972;SDS011;25333;50.762;4.470;2024-03-29T05:48:27;1.40;;;0.50;;
38972;SDS011;25333;50.762;4.470;2024-03-29T05:50:53;1.45;;;0.22;;
38972;SDS011;25333;50.762;4.470;2024-03-29T05:53:19;2.20;;;0.50;;
38972;SDS011;25333;50.762;4.470;2024-03-29T05:55:45;1.48;;;0.43;;
38972;SDS011;25333;50.762;4.470;2024-03-29T05:58:10;1.50;;;0.40;;
38972;SDS011;25333;50.762;4.470;2024-03-29T06:00:41;1.17;;;0.20;;
38972;SDS011;25333;50.762;4.470;2024-03-29T06:03:07;1.20;;;0.40;;
38972;SDS011;25333;50.762;4.470;2024-03-29T06:05:32;1.02;;;0.30;;
38972;SDS011;25333;50.762;4.470;2024-03-29T06:07:58;1.88;;;0.28;;
38972;SDS011;25333;50.762;4.470;2024-03-29T06:10:24;2.90;;;0.50;;
38972;SDS011;25333;50.762;4.470;2024-03-29T06:12:49;1.93;;;0.40;;
38972;SDS011;25333;50.762;4.470;2024-03-29T06:15:15;1.77;;;0.60;;
38972;SDS011;25333;50.762;4.470;2024-03-29T06:17:59;0.80;;;0.33;;
38972;SDS011;25333;50.762;4.470;2024-03-29T06:20:25;1.92;;;0.40;;
38972;SDS011;25333;50.762;4.470;2024-03-29T06:22:51;3.10;;;0.80;;
38972;SDS011;25333;50.762;4.470;2024-03-29T06:25:16;2.50;;;0.73;;
38972;SDS011;25333;50.762;4.470;2024-03-29T06:27:42;4.05;;;1.23;;
38972;SDS011;25333;50.762;4.470;2024-03-29T06:30:14;2.53;;;0.88;;
38972;SDS011;25333;50.762;4.470;2024-03-29T06:32:41;2.78;;;0.60;;
38972;SDS011;25333;50.762;4.470;2024-03-29T06:35:07;2.88;;;0.40;;
38972;SDS011;25333;50.762;4.470;2024-03-29T06:37:34;2.50;;;0.80;;
38972;SDS011;25333;50.762;4.470;2024-03-29T06:39:59;2.10;;;0.20;;
38972;SDS011;25333;50.762;4.470;2024-03-29T06:42:25;1.92;;;0.50;;
38972;SDS011;25333;50.762;4.470;2024-03-29T06:44:51;1.73;;;0.60;;
38972;SDS011;25333;50.762;4.470;2024-03-29T06:47:17;3.38;;;0.75;;
38972;SDS011;25333;50.762;4.470;2024-03-29T06:49:43;1.60;;;0.40;;
38972;SDS011;25333;50.762;4.470;2024-03-29T06:52:18;0.93;;;0.20;;
38972;SDS011;25333;50.762;4.470;2024-03-29T06:54:47;1.80;;;0.40;;
38972;SDS011;25333;50.762;4.470;2024-03-29T06:57:12;1.17;;;0.53;;
38972;SDS011;25333;50.762;4.470;2024-03-29T06:59:42;2.38;;;0.30;;
38972;SDS011;25333;50.762;4.470;2024-03-29T07:02:19;2.78;;;0.90;;
38972;SDS011;25333;50.762;4.470;2024-03-29T07:04:46;2.25;;;0.30;;
38972;SDS011;25333;50.762;4.470;2024-03-29T07:07:12;1.25;;;0.20;;
38972;SDS011;25333;50.762;4.470;2024-03-29T07:09:38;2.23;;;0.53;;
38972;SDS011;25333;50.762;4.470;2024-03-29T07:12:03;1.38;;;0.47;;
38972;SDS011;25333;50.762;4.470;2024-03-29T07:14:29;2.13;;;0.52;;
38972;SDS011;25333;50.762;4.470;2024-03-29T07:16:57;2.42;;;0.80;;
38972;SDS011;25333;50.762;4.470;2024-03-29T07:19:23;3.00;;;0.70;;
38972;SDS011;25333;50.762;4.470;2024-03-29T07:21:49;2.50;;;1.10;;
38972;SDS011;25333;50.762;4.470;2024-03-29T07:24:27;2.80;;;0.65;;
38972;SDS011;25333;50.762;4.470;2024-03-29T07:26:52;2.50;;;0.63;;
38972;SDS011;25333;50.762;4.470;2024-03-29T07:29:18;5.53;;;0.65;;
38972;SDS011;25333;50.762;4.470;2024-03-29T07:31:44;1.80;;;0.60;;
38972;SDS011;25333;50.762;4.470;2024-03-29T07:34:10;1.40;;;0.70;;
38972;SDS011;25333;50.762;4.470;2024-03-29T07:36:35;3.65;;;0.75;;
38972;SDS011;25333;50.762;4.470;2024-03-29T07:39:02;2.40;;;0.70;;
38972;SDS011;25333;50.762;4.470;2024-03-29T07:41:29;3.13;;;0.65;;
38972;SDS011;25333;50.762;4.470;2024-03-29T07:43:56;2.72;;;0.98;;
38972;SDS011;25333;50.762;4.470;2024-03-29T07:46:28;2.78;;;0.90;;
38972;SDS011;25333;50.762;4.470;2024-03-29T07:48:57;3.33;;;1.17;;
38972;SDS011;25333;50.762;4.470;2024-03-29T07:51:23;2.93;;;1.40;;
38972;SDS011;25333;50.762;4.470;2024-03-29T07:53:48;4.00;;;0.95;;
38972;SDS011;25333;50.762;4.470;2024-03-29T07:56:14;3.00;;;1.48;;
38972;SDS011;25333;50.762;4.470;2024-03-29T07:58:40;3.65;;;1.42;;
38972;SDS011;25333;50.762;4.470;2024-03-29T08:01:06;3.33;;;0.70;;
38972;SDS011;25333;50.762;4.470;2024-03-29T08:03:32;2.35;;;0.80;;
38972;SDS011;25333;50.762;4.470;2024-03-29T08:06:02;2.70;;;0.90;;
38972;SDS011;25333;50.762;4.470;2024-03-29T08:08:32;2.85;;;0.95;;
38972;SDS011;25333;50.762;4.470;2024-03-29T08:10:58;2.03;;;0.80;;
38972;SDS011;25333;50.762;4.470;2024-03-29T08:13:25;4.78;;;0.93;;
38972;SDS011;25333;50.762;4.470;2024-03-29T08:15:58;1.38;;;0.85;;
38972;SDS011;25333;50.762;4.470;2024-03-29T08:18:25;2.97;;;0.75;;
38972;SDS011;25333;50.762;4.470;2024-03-29T08:20:51;3.08;;;0.98;;
38972;SDS011;25333;50.762;4.470;2024-03-29T08:23:19;2.55;;;0.68;;
38972;SDS011;25333;50.762;4.470;2024-03-29T08:25:44;2.07;;;0.50;;
38972;SDS011;25333;50.762;4.470;2024-03-29T08:28:10;2.20;;;0.70;;
38972;SDS011;25333;50.762;4.470;2024-03-29T08:30:36;2.47;;;0.63;;
38972;SDS011;25333;50.762;4.470;2024-03-29T08:33:02;2.15;;;0.70;;
38972;SDS011;25333;50.762;4.470;2024-03-29T08:35:29;3.27;;;0.80;;
38972;SDS011;25333;50.762;4.470;2024-03-29T08:37:55;1.60;;;0.70;;
38972;SDS011;25333;50.762;4.470;2024-03-29T08:40:20;2.35;;;0.55;;
38972;SDS011;25333;50.762;4.470;2024-03-29T08:42:47;1.65;;;0.60;;
38972;SDS011;25333;50.762;4.470;2024-03-29T08:45:13;2.07;;;0.83;;
38972;SDS011;25333;50.762;4.470;2024-03-29T08:47:38;2.45;;;0.90;;
38972;SDS011;25333;50.762;4.470;2024-03-29T08:50:04;1.40;;;0.45;;
38972;SDS011;25333;50.762;4.470;2024-03-29T08:52:30;1.53;;;0.40;;
38972;SDS011;25333;50.762;4.470;2024-03-29T08:54:56;1.80;;;0.30;;
38972;SDS011;25333;50.762;4.470;2024-03-29T08:57:22;2.10;;;0.47;;
38972;SDS011;25333;50.762;4.470;2024-03-29T08:59:47;0.57;;;0.30;;
38972;SDS011;25333;50.762;4.470;2024-03-29T09:02:13;1.73;;;0.40;;
38972;SDS011;25333;50.762;4.470;2024-03-29T09:04:39;1.83;;;0.20;;
38972;SDS011;25333;50.762;4.470;2024-03-29T09:07:04;1.10;;;0.35;;
38972;SDS011;25333;50.762;4.470;2024-03-29T09:09:33;0.90;;;0.43;;
38972;SDS011;25333;50.762;4.470;2024-03-29T09:11:59;1.48;;;0.52;;
38972;SDS011;25333;50.762;4.470;2024-03-29T09:14:26;0.68;;;0.30;;
38972;SDS011;25333;50.762;4.470;2024-03-29T09:16:52;0.85;;;0.22;;
38972;SDS011;25333;50.762;4.470;2024-03-29T09:19:18;1.30;;;0.20;;
38972;SDS011;25333;50.762;4.470;2024-03-29T09:21:46;2.03;;;0.20;;
38972;SDS011;25333;50.762;4.470;2024-03-29T09:24:12;2.47;;;0.30;;
38972;SDS011;25333;50.762;4.470;2024-03-29T09:26:37;0.90;;;0.20;;
38972;SDS011;25333;50.762;4.470;2024-03-29T09:29:05;1.15;;;0.15;;
38972;SDS011;25333;50.762;4.470;2024-03-29T09:31:31;1.60;;;0.30;;
38972;SDS011;25333;50.762;4.470;2024-03-29T09:33:56;2.70;;;0.35;;
38972;SDS011;25333;50.762;4.470;2024-03-29T09:36:22;1.75;;;0.35;;
38972;SDS011;25333;50.762;4.470;2024-03-29T09:38:49;1.15;;;0.13;;
38972;SDS011;25333;50.762;4.470;2024-03-29T09:41:16;1.00;;;0.40;;
38972;SDS011;25333;50.762;4.470;2024-03-29T09:43:45;3.13;;;0.60;;
38972;SDS011;25333;50.762;4.470;2024-03-29T09:46:12;1.30;;;0.20;;
38972;SDS011;25333;50.762;4.470;2024-03-29T09:48:42;2.00;;;0.30;;
38972;SDS011;25333;50.762;4.470;2024-03-29T09:51:12;1.07;;;0.20;;
38972;SDS011;25333;50.762;4.470;2024-03-29T09:53:39;2.00;;;0.45;;
38972;SDS011;25333;50.762;4.470;2024-03-29T09:56:07;1.70;;;0.60;;
38972;SDS011;25333;50.762;4.470;2024-03-29T09:58:36;0.95;;;0.25;;
38972;SDS011;25333;50.762;4.470;2024-03-29T10:01:03;1.47;;;0.40;;
38972;SDS011;25333;50.762;4.470;2024-03-29T10:03:31;3.20;;;0.30;;
38972;SDS011;25333;50.762;4.470;2024-03-29T10:06:00;0.77;;;0.30;;
38972;SDS011;25333;50.762;4.470;2024-03-29T10:08:26;2.72;;;0.20;;
38972;SDS011;25333;50.762;4.470;2024-03-29T10:10:58;1.85;;;0.30;;
38972;SDS011;25333;50.762;4.470;2024-03-29T10:13:25;1.10;;;0.50;;
38972;SDS011;25333;50.762;4.470;2024-03-29T10:15:51;1.40;;;0.20;;
38972;SDS011;25333;50.762;4.470;2024-03-29T10:18:20;1.30;;;0.30;;
38972;SDS011;25333;50.762;4.470;2024-03-29T10:20:47;1.75;;;0.20;;
38972;SDS011;25333;50.762;4.470;2024-03-29T10:23:22;2.25;;;0.95;;
38972;SDS011;25333;50.762;4.470;2024-03-29T10:25:49;1.02;;;0.20;;
38972;SDS011;25333;50.762;4.470;2024-03-29T10:28:15;1.20;;;0.30;;
38972;SDS011;25333;50.762;4.470;2024-03-29T10:30:43;1.55;;;0.38;;
38972;SDS011;25333;50.762;4.470;2024-03-29T10:33:08;1.17;;;0.30;;
38972;SDS011;25333;50.762;4.470;2024-03-29T10:35:34;1.60;;;0.40;;
38972;SDS011;25333;50.762;4.470;2024-03-29T10:38:02;2.50;;;0.30;;
38972;SDS011;25333;50.762;4.470;2024-03-29T10:40:28;0.70;;;0.30;;
38972;SDS011;25333;50.762;4.470;2024-03-29T10:42:55;0.88;;;0.30;;
38972;SDS011;25333;50.762;4.470;2024-03-29T10:45:22;1.13;;;0.35;;
38972;SDS011;25333;50.762;4.470;2024-03-29T10:47:49;1.75;;;0.30;;
38972;SDS011;25333;50.762;4.470;2024-03-29T10:50:17;0.40;;;0.10;;
38972;SDS011;25333;50.762;4.470;2024-03-29T10:52:44;1.60;;;0.10;;
38972;SDS011;25333;50.762;4.470;2024-03-29T10:55:14;0.57;;;0.20;;
38972;SDS011;25333;50.762;4.470;2024-03-29T10:57:42;1.13;;;0.15;;
38972;SDS011;25333;50.762;4.470;2024-03-29T11:00:11;0.40;;;0.13;;
38972;SDS011;25333;50.762;4.470;2024-03-29T11:02:57;0.90;;;0.20;;
38972;SDS011;25333;50.762;4.470;2024-03-29T11:05:47;1.00;;;0.20;;
38972;SDS011;25333;50.762;4.470;2024-03-29T11:08:19;3.25;;;0.50;;
38972;SDS011;25333;50.762;4.470;2024-03-29T11:10:50;1.30;;;0.30;;
38972;SDS011;25333;50.762;4.470;2024-03-29T11:15:46;1.83;;;0.20;;
38972;SDS011;25333;50.762;4.470;2024-03-29T11:18:14;0.30;;;0.10;;
38972;SDS011;25333;50.762;4.470;2024-03-29T11:20:43;1.50;;;0.10;;
38972;SDS011;25333;50.762;4.470;2024-03-29T11:23:16;0.65;;;0.20;;
38972;SDS011;25333;50.762;4.470;2024-03-29T11:25:48;1.80;;;0.43;;
38972;SDS011;25333;50.762;4.470;2024-03-29T11:28:22;0.38;;;0.13;;
38972;SDS011;25333;50.762;4.470;2024-03-29T11:30:50;0.52;;;0.08;;
38972;SDS011;25333;50.762;4.470;2024-03-29T11:33:25;0.25;;;0.10;;
38972;SDS011;25333;50.762;4.470;2024-03-29T11:35:55;1.15;;;0.20;;
38972;SDS011;25333;50.762;4.470;2024-03-29T11:38:34;2.50;;;0.13;;
38972;SDS011;25333;50.762;4.470;2024-03-29T11:41:04;1.10;;;0.30;;
38972;SDS011;25333;50.762;4.470;2024-03-29T11:43:35;0.38;;;0.10;;
38972;SDS011;25333;50.762;4.470;2024-03-29T11:46:02;0.47;;;0.30;;
38972;SDS011;25333;50.762;4.470;2024-03-29T11:48:31;0.32;;;0.10;;
38972;SDS011;25333;50.762;4.470;2024-03-29T11:50:57;0.95;;;0.17;;
38972;SDS011;25333;50.762;4.470;2024-03-29T11:53:24;0.80;;;0.20;;
38972;SDS011;25333;50.762;4.470;2024-03-29T11:55:50;1.80;;;0.20;;
38972;SDS011;25333;50.762;4.470;2024-03-29T11:58:22;0.40;;;0.10;;
38972;SDS011;25333;50.762;4.470;2024-03-29T12:00:49;1.27;;;0.30;;
38972;SDS011;25333;50.762;4.470;2024-03-29T12:03:19;0.80;;;0.30;;
38972;SDS011;25333;50.762;4.470;2024-03-29T12:05:47;1.23;;;0.20;;
38972;SDS011;25333;50.762;4.470;2024-03-29T12:08:14;0.60;;;0.00;;
38972;SDS011;25333;50.762;4.470;2024-03-29T12:10:40;0.60;;;0.30;;
38972;SDS011;25333;50.762;4.470;2024-03-29T12:13:06;0.27;;;0.07;;
38972;SDS011;25333;50.762;4.470;2024-03-29T12:15:32;2.30;;;0.20;;
38972;SDS011;25333;50.762;4.470;2024-03-29T12:17:59;0.47;;;0.15;;
38972;SDS011;25333;50.762;4.470;2024-03-29T12:20:33;1.10;;;0.20;;
38972;SDS011;25333;50.762;4.470;2024-03-29T12:23:02;0.70;;;0.10;;
38972;SDS011;25333;50.762;4.470;2024-03-29T12:25:29;2.80;;;0.40;;
38972;SDS011;25333;50.762;4.470;2024-03-29T12:27:56;0.28;;;0.10;;
38972;SDS011;25333;50.762;4.470;2024-03-29T12:30:23;0.20;;;0.00;;
38972;SDS011;25333;50.762;4.470;2024-03-29T12:33:11;1.00;;;0.20;;
38972;SDS011;25333;50.762;4.470;2024-03-29T12:35:41;0.77;;;0.10;;
38972;SDS011;25333;50.762;4.470;2024-03-29T12:38:13;0.57;;;0.30;;
38972;SDS011;25333;50.762;4.470;2024-03-29T12:40:40;1.50;;;0.10;;
38972;SDS011;25333;50.762;4.470;2024-03-29T12:43:08;1.02;;;0.20;;
38972;SDS011;25333;50.762;4.470;2024-03-29T12:45:35;1.10;;;0.20;;
38972;SDS011;25333;50.762;4.470;2024-03-29T12:48:10;0.40;;;0.10;;
38972;SDS011;25333;50.762;4.470;2024-03-29T12:50:39;0.40;;;0.20;;
38972;SDS011;25333;50.762;4.470;2024-03-29T12:53:06;0.30;;;0.10;;
38972;SDS011;25333;50.762;4.470;2024-03-29T12:55:33;0.30;;;0.10;;
38972;SDS011;25333;50.762;4.470;2024-03-29T12:58:01;0.82;;;0.08;;
38972;SDS011;25333;50.762;4.470;2024-03-29T13:00:29;0.50;;;0.10;;
38972;SDS011;25333;50.762;4.470;2024-03-29T13:02:56;0.70;;;0.30;;
38972;SDS011;25333;50.762;4.470;2024-03-29T13:05:21;2.10;;;0.10;;
38972;SDS011;25333;50.762;4.470;2024-03-29T13:07:48;2.40;;;0.17;;
38972;SDS011;25333;50.762;4.470;2024-03-29T13:10:14;1.17;;;0.05;;
38972;SDS011;25333;50.762;4.470;2024-03-29T13:12:45;0.22;;;0.05;;
38972;SDS011;25333;50.762;4.470;2024-03-29T13:15:18;0.08;;;0.00;;
38972;SDS011;25333;50.762;4.470;2024-03-29T13:17:46;0.47;;;0.10;;
38972;SDS011;25333;50.762;4.470;2024-03-29T13:20:14;0.55;;;0.10;;
38972;SDS011;25333;50.762;4.470;2024-03-29T13:22:44;2.00;;;0.20;;
38972;SDS011;25333;50.762;4.470;2024-03-29T13:25:13;0.40;;;0.03;;
38972;SDS011;25333;50.762;4.470;2024-03-29T13:27:40;1.08;;;0.10;;
38972;SDS011;25333;50.762;4.470;2024-03-29T13:30:07;0.37;;;0.10;;
38972;SDS011;25333;50.762;4.470;2024-03-29T13:32:40;0.20;;;0.00;;
38972;SDS011;25333;50.762;4.470;2024-03-29T13:35:10;0.90;;;0.30;;
38972;SDS011;25333;50.762;4.470;2024-03-29T13:37:39;0.23;;;0.20;;
38972;SDS011;25333;50.762;4.470;2024-03-29T13:40:16;0.30;;;0.10;;
38972;SDS011;25333;50.762;4.470;2024-03-29T13:42:44;0.25;;;0.10;;
38972;SDS011;25333;50.762;4.470;2024-03-29T13:45:10;0.47;;;0.10;;
38972;SDS011;25333;50.762;4.470;2024-03-29T13:47:37;0.52;;;0.10;;
38972;SDS011;25333;50.762;4.470;2024-03-29T13:50:05;2.05;;;0.10;;
38972;SDS011;25333;50.762;4.470;2024-03-29T13:52:31;2.00;;;0.10;;
38972;SDS011;25333;50.762;4.470;2024-03-29T13:54:57;1.55;;;0.22;;
38972;SDS011;25333;50.762;4.470;2024-03-29T13:57:23;1.42;;;0.15;;
38972;SDS011;25333;50.762;4.470;2024-03-29T13:59:49;0.90;;;0.10;;
38972;SDS011;25333;50.762;4.470;2024-03-29T14:02:16;0.73;;;0.20;;
38972;SDS011;25333;50.762;4.470;2024-03-29T14:04:43;1.20;;;0.50;;
38972;SDS011;25333;50.762;4.470;2024-03-29T14:07:10;4.32;;;0.63;;
38972;SDS011;25333;50.762;4.470;2024-03-29T14:09:37;1.10;;;0.27;;
38972;SDS011;25333;50.762;4.470;2024-03-29T14:12:04;0.70;;;0.10;;
38972;SDS011;25333;50.762;4.470;2024-03-29T14:14:30;0.75;;;0.10;;
38972;SDS011;25333;50.762;4.470;2024-03-29T14:16:56;1.73;;;0.30;;
38972;SDS011;25333;50.762;4.470;2024-03-29T14:19:22;1.35;;;0.10;;
38972;SDS011;25333;50.762;4.470;2024-03-29T14:21:48;0.75;;;0.38;;
38972;SDS011;25333;50.762;4.470;2024-03-29T14:24:13;0.82;;;0.30;;
38972;SDS011;25333;50.762;4.470;2024-03-29T14:26:40;1.20;;;0.20;;
38972;SDS011;25333;50.762;4.470;2024-03-29T14:29:07;0.75;;;0.30;;
38972;SDS011;25333;50.762;4.470;2024-03-29T14:31:33;0.60;;;0.20;;
38972;SDS011;25333;50.762;4.470;2024-03-29T14:33:59;1.50;;;0.30;;
38972;SDS011;25333;50.762;4.470;2024-03-29T14:36:25;0.45;;;0.20;;
38972;SDS011;25333;50.762;4.470;2024-03-29T14:38:51;0.70;;;0.30;;
38972;SDS011;25333;50.762;4.470;2024-03-29T14:41:17;1.27;;;0.20;;
38972;SDS011;25333;50.762;4.470;2024-03-29T14:43:44;1.63;;;0.32;;
38972;SDS011;25333;50.762;4.470;2024-03-29T14:46:11;1.25;;;0.30;;
38972;SDS011;25333;50.762;4.470;2024-03-29T14:48:37;0.50;;;0.17;;
38972;SDS011;25333;50.762;4.470;2024-03-29T14:51:03;2.00;;;0.38;;